Katy, TX (77450)

8:54 AM CST on December 18, 2014 (GMT -0600)
Creekstone | Change Station
CLOSE
Current Station
Personal Weather Station
Location: Katy, TX
Elevation: 118 ft
Nearby Weather Stations

Elev 118 ft 29.76 °N, 95.76 °W | Updated 23 seconds ago

Overcast
Overcast
60.6 °F
Feels Like 60.6 °F
N
0.0
Wind Variable Wind from NNE
Gusts 0.0 mph

Today
High -- | Low -- °F
--% Chance of Precip.
Yesterday
High -- | Low -- °F
Precip. -- in
7:12 AM 5:26 PM
Waning Crescent, 14% visible
Pressure 30.11 in
Visibility 0.8 miles
Clouds Overcast 200 ft
Dew Point 61 °F
Humidity 100%
Rainfall 0.63 in
Snow Depth Not available.
UV 0 out of 12
Pollen 4.40 out of 12
Air Quality Not available.
Flu Activity Not available.
METAR KTME 181435Z AUTO 36009KT 3/4SM BR OVC002 14/14 A3011 RMK AO2

More Conditions Fewer Conditions

Pressure 30.11 in
Visibility 0.8 miles
Clouds Overcast 200 ft
Dew Point 61 °F
Humidity 100%
Rainfall 0.63 in
Snow Depth Not available.
UV 0 out of 12
Pollen 4.40 out of 12
Air Quality Not available.
Flu Activity Not available.
METAR KTME 181435Z AUTO 36009KT 3/4SM BR OVC002 14/14 A3011 RMK AO2

More Conditions Fewer Conditions

10-Day Weather Forecast

Almanac

Astronomy

Dec. 18, 2014 Rise Set
Actual Time
Civil Twilight
Nautical Twilight
Astronomical Twilight
Moon
Length of Visible Light
Length of Day
Tomorrow will be .
, % of the Moon is Illuminated

Today's Extremes

State Highs State Lows

Community

WunderPhotos

Upload Photos

1,778,929 photos uploaded!

WunderBlogs® & News

Nearby

Air Quality

  Air Quality AQ Index Pollutant
Not available.

Snow Depth

Station Depth Elevation

Earthquake Activity

City Distance Mag. Time & Date
Minimum magnitude displayed is 2.5.

Coastal Water Temperatures

Place Temperature

Nearby Weather Stations